Portada
METAR-TAF:

METAR-TAF

Aeroports :

Wemindji, Quebec, Canadà

latitud: 53-00-39N, longitud: 078-49-49W, altitud: 15 m

Observació

L'informe es va fer fa 21 minuts, a les 20:00 UTC
Vent 8 kt del Nord-Oest
Temperatura 13°C
Humitat 77%
Pressió 1015 hPa
Visibilitat: 24.1 km
Escasses núvols a una alçada de 1600 ft
Escasses núvols a una alçada de 30000 ft

METAR: CYNC 152000Z 31008KT 15SM FEW016 FEW300 13/09 A2997 RMK CU1CI2 CU TR CONTRAIL SLP151

Hora: 16:21 (20:21 UTC)


TAF: manca

Observacions i pronòstics meteorològics de més de 4000 aeroports (METAR i TAF).

Les estacions disponibles són els punts grocs i vermells al mapa.

Posi el ratolí al punt desitjat per veure el nom de l'estació.

Feu clic per veure les observacions i els pronòstics meteorològics.

Per canviar el mapa: feu clic els botons verds amb una creu de color negre per apropar; al botó verd amb un guió per allunyar la imatge; o en les fletxes verdes per a mapes adjacents.


METAR-TAF: